sensor_id;sensor_type;location;lat;lon;timestamp;pressure;altitude;pressure_sealevel;temperature;humidity
22649;BME280;11491;41.942;24.220;2022-09-03T00:01:15;89908.38;;;14.03;100.00
22649;BME280;11491;41.942;24.220;2022-09-03T00:03:46;89908.47;;;14.10;100.00
22649;BME280;11491;41.942;24.220;2022-09-03T00:06:20;89911.56;;;14.12;100.00
22649;BME280;11491;41.942;24.220;2022-09-03T00:08:52;89911.25;;;14.17;100.00
22649;BME280;11491;41.942;24.220;2022-09-03T00:11:26;89918.16;;;14.18;100.00
22649;BME280;11491;41.942;24.220;2022-09-03T00:13:59;89903.84;;;14.10;100.00
22649;BME280;11491;41.942;24.220;2022-09-03T00:16:33;89929.56;;;14.08;100.00
22649;BME280;11491;41.942;24.220;2022-09-03T00:19:04;89925.56;;;13.98;100.00
22649;BME280;11491;41.942;24.220;2022-09-03T00:21:37;89923.66;;;13.98;100.00
22649;BME280;11491;41.942;24.220;2022-09-03T00:24:08;89927.59;;;14.05;100.00
22649;BME280;11491;41.942;24.220;2022-09-03T00:26:39;89926.44;;;14.06;100.00
22649;BME280;11491;41.942;24.220;2022-09-03T00:29:12;89933.38;;;14.07;100.00
22649;BME280;11491;41.942;24.220;2022-09-03T00:31:44;89923.31;;;14.00;100.00
22649;BME280;11491;41.942;24.220;2022-09-03T00:34:16;89921.81;;;14.03;100.00
22649;BME280;11491;41.942;24.220;2022-09-03T00:36:48;89925.66;;;14.02;100.00
22649;BME280;11491;41.942;24.220;2022-09-03T00:39:17;89914.03;;;13.94;100.00
22649;BME280;11491;41.942;24.220;2022-09-03T00:41:54;89921.03;;;14.02;100.00
22649;BME280;11491;41.942;24.220;2022-09-03T00:44:52;89923.38;;;14.04;100.00
22649;BME280;11491;41.942;24.220;2022-09-03T00:47:29;89918.00;;;14.04;100.00
22649;BME280;11491;41.942;24.220;2022-09-03T00:50:05;89928.00;;;14.07;100.00
22649;BME280;11491;41.942;24.220;2022-09-03T00:52:49;89935.13;;;13.95;100.00
22649;BME280;11491;41.942;24.220;2022-09-03T00:55:26;89927.66;;;13.82;100.00
22649;BME280;11491;41.942;24.220;2022-09-03T00:58:19;89926.81;;;13.77;100.00
22649;BME280;11491;41.942;24.220;2022-09-03T01:00:49;89937.53;;;13.74;100.00
22649;BME280;11491;41.942;24.220;2022-09-03T01:03:22;89929.69;;;13.62;100.00
22649;BME280;11491;41.942;24.220;2022-09-03T01:06:03;89922.00;;;13.64;100.00
22649;BME280;11491;41.942;24.220;2022-09-03T01:08:57;89931.31;;;13.70;100.00
22649;BME280;11491;41.942;24.220;2022-09-03T01:11:36;89935.13;;;13.69;100.00
22649;BME280;11491;41.942;24.220;2022-09-03T01:14:28;89928.31;;;13.75;100.00
22649;BME280;11491;41.942;24.220;2022-09-03T01:17:01;89944.22;;;13.61;100.00
22649;BME280;11491;41.942;24.220;2022-09-03T01:19:48;89931.06;;;13.52;100.00
22649;BME280;11491;41.942;24.220;2022-09-03T01:22:34;89932.75;;;13.64;100.00
22649;BME280;11491;41.942;24.220;2022-09-03T01:25:14;89925.84;;;13.63;100.00
22649;BME280;11491;41.942;24.220;2022-09-03T01:30:21;89931.31;;;13.70;100.00
22649;BME280;11491;41.942;24.220;2022-09-03T01:32:55;89923.47;;;13.57;100.00
22649;BME280;11491;41.942;24.220;2022-09-03T01:35:32;89936.69;;;13.70;100.00
22649;BME280;11491;41.942;24.220;2022-09-03T01:38:11;89932.06;;;13.67;100.00
22649;BME280;11491;41.942;24.220;2022-09-03T01:40:49;89932.44;;;13.69;100.00
22649;BME280;11491;41.942;24.220;2022-09-03T01:43:33;89930.06;;;13.64;100.00
22649;BME280;11491;41.942;24.220;2022-09-03T01:46:08;89933.59;;;13.68;100.00
22649;BME280;11491;41.942;24.220;2022-09-03T01:48:43;89920.16;;;13.68;99.63
22649;BME280;11491;41.942;24.220;2022-09-03T01:51:20;89932.16;;;13.74;99.28
22649;BME280;11491;41.942;24.220;2022-09-03T01:56:53;89941.22;;;13.66;100.00
22649;BME280;11491;41.942;24.220;2022-09-03T01:59:29;89939.69;;;13.65;100.00
22649;BME280;11491;41.942;24.220;2022-09-03T02:02:02;89934.31;;;13.65;100.00
22649;BME280;11491;41.942;24.220;2022-09-03T02:04:31;89939.69;;;13.65;100.00
22649;BME280;11491;41.942;24.220;2022-09-03T02:06:59;89939.72;;;13.68;100.00
22649;BME280;11491;41.942;24.220;2022-09-03T02:09:27;89937.09;;;13.45;100.00
22649;BME280;11491;41.942;24.220;2022-09-03T02:11:57;89928.72;;;13.50;100.00
22649;BME280;11491;41.942;24.220;2022-09-03T02:14:29;89932.66;;;13.56;100.00
22649;BME280;11491;41.942;24.220;2022-09-03T02:16:58;89930.47;;;13.66;100.00
22649;BME280;11491;41.942;24.220;2022-09-03T02:19:27;89935.97;;;13.73;100.00
22649;BME280;11491;41.942;24.220;2022-09-03T02:21:56;89929.88;;;13.76;100.00
22649;BME280;11491;41.942;24.220;2022-09-03T02:24:24;89934.63;;;13.86;99.92
22649;BME280;11491;41.942;24.220;2022-09-03T02:26:52;89938.41;;;13.82;99.63
22649;BME280;11491;41.942;24.220;2022-09-03T02:29:19;89938.84;;;13.61;99.88
22649;BME280;11491;41.942;24.220;2022-09-03T02:31:46;89936.69;;;13.70;100.00
22649;BME280;11491;41.942;24.220;2022-09-03T02:34:15;89937.31;;;13.60;100.00
22649;BME280;11491;41.942;24.220;2022-09-03T02:36:43;89933.78;;;13.55;100.00
22649;BME280;11491;41.942;24.220;2022-09-03T02:39:11;89931.22;;;13.63;100.00
22649;BME280;11491;41.942;24.220;2022-09-03T02:41:38;89934.75;;;13.67;100.00
22649;BME280;11491;41.942;24.220;2022-09-03T02:44:10;89926.78;;;13.74;100.00
22649;BME280;11491;41.942;24.220;2022-09-03T02:46:44;89932.19;;;13.77;100.00
22649;BME280;11491;41.942;24.220;2022-09-03T02:49:12;89933.09;;;13.85;100.00
22649;BME280;11491;41.942;24.220;2022-09-03T02:51:42;89935.34;;;13.83;100.00
22649;BME280;11491;41.942;24.220;2022-09-03T02:54:10;89946.09;;;13.83;100.00
22649;BME280;11491;41.942;24.220;2022-09-03T02:56:38;89946.00;;;13.76;100.00
22649;BME280;11491;41.942;24.220;2022-09-03T02:59:06;89936.06;;;13.80;100.00
22649;BME280;11491;41.942;24.220;2022-09-03T03:01:34;89942.06;;;13.70;100.00
22649;BME280;11491;41.942;24.220;2022-09-03T03:04:02;89944.91;;;13.54;100.00
22649;BME280;11491;41.942;24.220;2022-09-03T03:06:29;89945.31;;;13.33;100.00
22649;BME280;11491;41.942;24.220;2022-09-03T03:08:57;89951.84;;;13.12;100.00
22649;BME280;11491;41.942;24.220;2022-09-03T03:11:24;89950.00;;;13.17;100.00
22649;BME280;11491;41.942;24.220;2022-09-03T03:13:52;89949.91;;;13.32;100.00
22649;BME280;11491;41.942;24.220;2022-09-03T03:16:19;89949.63;;;13.38;100.00
22649;BME280;11491;41.942;24.220;2022-09-03T03:18:45;89949.38;;;13.46;100.00
22649;BME280;11491;41.942;24.220;2022-09-03T03:21:14;89948.25;;;13.47;100.00
22649;BME280;11491;41.942;24.220;2022-09-03T03:23:42;89951.09;;;13.58;100.00
22649;BME280;11491;41.942;24.220;2022-09-03T03:26:12;89951.25;;;13.69;100.00
22649;BME280;11491;41.942;24.220;2022-09-03T03:28:39;89942.69;;;13.60;100.00
22649;BME280;11491;41.942;24.220;2022-09-03T03:31:07;89955.63;;;13.77;100.00
22649;BME280;11491;41.942;24.220;2022-09-03T03:33:34;89956.03;;;13.79;100.00
22649;BME280;11491;41.942;24.220;2022-09-03T03:36:05;89954.34;;;13.71;100.00
22649;BME280;11491;41.942;24.220;2022-09-03T03:38:32;89954.34;;;13.71;100.00
22649;BME280;11491;41.942;24.220;2022-09-03T03:41:05;89954.03;;;13.76;100.00
22649;BME280;11491;41.942;24.220;2022-09-03T03:43:34;89952.31;;;13.87;100.00
22649;BME280;11491;41.942;24.220;2022-09-03T03:46:00;89955.00;;;13.87;100.00
22649;BME280;11491;41.942;24.220;2022-09-03T03:48:27;89955.31;;;13.82;100.00
22649;BME280;11491;41.942;24.220;2022-09-03T03:50:54;89953.34;;;13.79;100.00
22649;BME280;11491;41.942;24.220;2022-09-03T03:53:21;89952.81;;;13.70;100.00
22649;BME280;11491;41.942;24.220;2022-09-03T03:55:53;89949.06;;;13.74;100.00
22649;BME280;11491;41.942;24.220;2022-09-03T03:58:21;89956.72;;;13.76;100.00
22649;BME280;11491;41.942;24.220;2022-09-03T04:00:50;89943.72;;;13.78;100.00
22649;BME280;11491;41.942;24.220;2022-09-03T04:03:17;89963.16;;;13.94;100.00
22649;BME280;11491;41.942;24.220;2022-09-03T04:05:53;89952.41;;;13.94;100.00
22649;BME280;11491;41.942;24.220;2022-09-03T04:08:20;89953.22;;;13.98;100.00
22649;BME280;11491;41.942;24.220;2022-09-03T04:10:47;89953.59;;;13.97;100.00
22649;BME280;11491;41.942;24.220;2022-09-03T04:13:14;89953.94;;;13.95;100.00
22649;BME280;11491;41.942;24.220;2022-09-03T04:15:41;89957.16;;;14.05;100.00
22649;BME280;11491;41.942;24.220;2022-09-03T04:18:09;89956.50;;;14.11;100.00
22649;BME280;11491;41.942;24.220;2022-09-03T04:20:36;89971.16;;;14.17;100.00
22649;BME280;11491;41.942;24.220;2022-09-03T04:23:04;89966.56;;;14.18;100.00
22649;BME280;11491;41.942;24.220;2022-09-03T04:25:31;89975.00;;;14.16;100.00
22649;BME280;11491;41.942;24.220;2022-09-03T04:27:58;89983.38;;;14.11;100.00
22649;BME280;11491;41.942;24.220;2022-09-03T04:30:25;89974.13;;;14.09;100.00
22649;BME280;11491;41.942;24.220;2022-09-03T04:32:52;89970.41;;;14.17;100.00
22649;BME280;11491;41.942;24.220;2022-09-03T04:35:21;89975.03;;;14.20;100.00
22649;BME280;11491;41.942;24.220;2022-09-03T04:37:48;89975.50;;;14.26;100.00
22649;BME280;11491;41.942;24.220;2022-09-03T04:40:15;89982.78;;;14.25;100.00
22649;BME280;11491;41.942;24.220;2022-09-03T04:42:42;89979.16;;;14.40;100.00
22649;BME280;11491;41.942;24.220;2022-09-03T04:45:09;89974.91;;;14.39;100.00
22649;BME280;11491;41.942;24.220;2022-09-03T04:47:40;89967.06;;;14.54;100.00
22649;BME280;11491;41.942;24.220;2022-09-03T04:50:07;89972.53;;;14.61;100.00
22649;BME280;11491;41.942;24.220;2022-09-03T04:52:35;89968.03;;;14.69;100.00
22649;BME280;11491;41.942;24.220;2022-09-03T04:55:03;89977.38;;;14.78;100.00
22649;BME280;11491;41.942;24.220;2022-09-03T04:57:30;89978.16;;;14.82;100.00
22649;BME280;11491;41.942;24.220;2022-09-03T04:59:59;89965.88;;;14.85;100.00
22649;BME280;11491;41.942;24.220;2022-09-03T05:02:26;89979.16;;;15.01;100.00
22649;BME280;11491;41.942;24.220;2022-09-03T05:04:53;89979.94;;;15.05;100.00
22649;BME280;11491;41.942;24.220;2022-09-03T05:07:20;89987.69;;;15.10;98.59
22649;BME280;11491;41.942;24.220;2022-09-03T05:09:48;89989.25;;;15.11;99.05
22649;BME280;11491;41.942;24.220;2022-09-03T05:12:15;89993.56;;;15.19;99.39
22649;BME280;11491;41.942;24.220;2022-09-03T05:14:42;89991.69;;;15.23;98.48
22649;BME280;11491;41.942;24.220;2022-09-03T05:17:08;90010.81;;;15.11;99.42
22649;BME280;11491;41.942;24.220;2022-09-03T05:19:35;90012.47;;;15.23;98.39
22649;BME280;11491;41.942;24.220;2022-09-03T05:22:02;90010.22;;;15.28;99.29
22649;BME280;11491;41.942;24.220;2022-09-03T05:24:29;90014.97;;;15.42;99.84
22649;BME280;11491;41.942;24.220;2022-09-03T05:26:57;90008.19;;;15.59;99.78
22649;BME280;11491;41.942;24.220;2022-09-03T05:29:24;90012.13;;;15.65;100.00
22649;BME280;11491;41.942;24.220;2022-09-03T05:31:51;90005.25;;;15.71;100.00
22649;BME280;11491;41.942;24.220;2022-09-03T05:34:18;90016.13;;;15.82;100.00
22649;BME280;11491;41.942;24.220;2022-09-03T05:36:45;90016.50;;;15.81;100.00
22649;BME280;11491;41.942;24.220;2022-09-03T05:39:14;90013.88;;;15.88;99.45
22649;BME280;11491;41.942;24.220;2022-09-03T05:41:41;90010.03;;;15.89;98.99
22649;BME280;11491;41.942;24.220;2022-09-03T05:44:09;90031.66;;;15.96;99.08
22649;BME280;11491;41.942;24.220;2022-09-03T05:46:35;90023.56;;;15.96;99.19
22649;BME280;11491;41.942;24.220;2022-09-03T05:49:04;90020.13;;;15.99;98.17
22649;BME280;11491;41.942;24.220;2022-09-03T05:51:32;90030.91;;;15.99;98.43
22649;BME280;11491;41.942;24.220;2022-09-03T05:53:59;90031.72;;;16.03;99.27
22649;BME280;11491;41.942;24.220;2022-09-03T05:56:28;90023.34;;;16.15;100.00
22649;BME280;11491;41.942;24.220;2022-09-03T05:58:57;90024.19;;;16.27;99.95
22649;BME280;11491;41.942;24.220;2022-09-03T06:01:29;90015.00;;;16.35;100.00
22649;BME280;11491;41.942;24.220;2022-09-03T06:03:57;90021.22;;;16.43;100.00
22649;BME280;11491;41.942;24.220;2022-09-03T06:06:25;90025.50;;;16.51;98.00
22649;BME280;11491;41.942;24.220;2022-09-03T06:08:53;90034.81;;;16.61;97.29
22649;BME280;11491;41.942;24.220;2022-09-03T06:11:22;90036.00;;;16.63;97.52
22649;BME280;11491;41.942;24.220;2022-09-03T06:13:52;90034.09;;;16.71;97.77
22649;BME280;11491;41.942;24.220;2022-09-03T06:16:19;90033.75;;;16.76;98.88
22649;BME280;11491;41.942;24.220;2022-09-03T06:18:48;90027.97;;;16.77;99.54
22649;BME280;11491;41.942;24.220;2022-09-03T06:21:15;90028.00;;;16.81;98.12
22649;BME280;11491;41.942;24.220;2022-09-03T06:23:42;90030.75;;;16.85;98.57
22649;BME280;11491;41.942;24.220;2022-09-03T06:26:11;90037.34;;;16.94;98.51
22649;BME280;11491;41.942;24.220;2022-09-03T06:28:40;90038.56;;;17.08;99.12
22649;BME280;11491;41.942;24.220;2022-09-03T06:31:09;90037.00;;;17.07;97.38
22649;BME280;11491;41.942;24.220;2022-09-03T06:33:37;90049.00;;;17.09;97.47
22649;BME280;11491;41.942;24.220;2022-09-03T06:36:07;90046.31;;;17.13;97.63
22649;BME280;11491;41.942;24.220;2022-09-03T06:38:35;90032.81;;;17.20;95.19
22649;BME280;11491;41.942;24.220;2022-09-03T06:41:04;90036.34;;;17.38;95.45
22649;BME280;11491;41.942;24.220;2022-09-03T06:43:32;90040.28;;;17.52;96.03
22649;BME280;11491;41.942;24.220;2022-09-03T06:46:01;90036.06;;;17.65;92.61
22649;BME280;11491;41.942;24.220;2022-09-03T06:48:30;90029.53;;;17.80;91.13
22649;BME280;11491;41.942;24.220;2022-09-03T06:50:59;90030.34;;;17.92;90.74
22649;BME280;11491;41.942;24.220;2022-09-03T06:53:29;90036.53;;;17.99;89.72
22649;BME280;11491;41.942;24.220;2022-09-03T06:55:58;90029.56;;;18.02;91.59
22649;BME280;11491;41.942;24.220;2022-09-03T06:58:28;90037.69;;;18.09;88.86
22649;BME280;11491;41.942;24.220;2022-09-03T07:01:00;90024.91;;;18.06;89.08
22649;BME280;11491;41.942;24.220;2022-09-03T07:03:27;90030.72;;;18.22;90.87
22649;BME280;11491;41.942;24.220;2022-09-03T07:05:59;90018.00;;;18.34;91.14
22649;BME280;11491;41.942;24.220;2022-09-03T07:08:27;90018.72;;;18.63;90.25
22649;BME280;11491;41.942;24.220;2022-09-03T07:10:57;90039.59;;;18.91;90.63
22649;BME280;11491;41.942;24.220;2022-09-03T07:13:24;90025.59;;;19.07;88.84
22649;BME280;11491;41.942;24.220;2022-09-03T07:15:58;90034.00;;;19.41;87.62
22649;BME280;11491;41.942;24.220;2022-09-03T07:18:25;90035.81;;;19.66;87.62
22649;BME280;11491;41.942;24.220;2022-09-03T07:20:57;90032.28;;;19.79;82.75
22649;BME280;11491;41.942;24.220;2022-09-03T07:23:23;90035.38;;;19.85;84.84
22649;BME280;11491;41.942;24.220;2022-09-03T07:25:53;90028.34;;;19.91;84.26
22649;BME280;11491;41.942;24.220;2022-09-03T07:28:20;90025.53;;;20.06;83.15
22649;BME280;11491;41.942;24.220;2022-09-03T07:30:47;90027.31;;;20.30;82.83
22649;BME280;11491;41.942;24.220;2022-09-03T07:33:14;90022.56;;;20.41;78.24
22649;BME280;11491;41.942;24.220;2022-09-03T07:35:42;90029.81;;;20.59;80.93
22649;BME280;11491;41.942;24.220;2022-09-03T07:38:09;90023.22;;;20.60;76.89
22649;BME280;11491;41.942;24.220;2022-09-03T07:40:36;90031.06;;;20.43;77.45
22649;BME280;11491;41.942;24.220;2022-09-03T07:43:05;90029.59;;;20.35;78.42
22649;BME280;11491;41.942;24.220;2022-09-03T07:45:31;90013.34;;;20.28;78.01
22649;BME280;11491;41.942;24.220;2022-09-03T07:47:58;90038.41;;;20.47;74.91
22649;BME280;11491;41.942;24.220;2022-09-03T07:50:25;90044.22;;;20.49;75.65
22649;BME280;11491;41.942;24.220;2022-09-03T07:52:55;90047.16;;;20.72;76.50
22649;BME280;11491;41.942;24.220;2022-09-03T07:55:23;90040.81;;;20.86;77.01
22649;BME280;11491;41.942;24.220;2022-09-03T07:57:54;90016.81;;;20.81;76.14
22649;BME280;11491;41.942;24.220;2022-09-03T08:00:25;90035.06;;;21.18;73.63
22649;BME280;11491;41.942;24.220;2022-09-03T08:02:52;90041.81;;;21.41;76.31
22649;BME280;11491;41.942;24.220;2022-09-03T08:05:18;90035.47;;;21.55;75.23
22649;BME280;11491;41.942;24.220;2022-09-03T08:07:46;90036.31;;;21.79;77.17
22649;BME280;11491;41.942;24.220;2022-09-03T08:10:14;90027.88;;;22.00;78.20
22649;BME280;11491;41.942;24.220;2022-09-03T08:12:41;90038.91;;;22.17;79.36
22649;BME280;11491;41.942;24.220;2022-09-03T08:15:08;90032.75;;;22.40;80.04
22649;BME280;11491;41.942;24.220;2022-09-03T08:17:36;90044.03;;;22.65;79.59
22649;BME280;11491;41.942;24.220;2022-09-03T08:20:03;90039.47;;;22.82;76.80
22649;BME280;11491;41.942;24.220;2022-09-03T08:22:33;90041.97;;;22.96;76.53
22649;BME280;11491;41.942;24.220;2022-09-03T08:25:00;90030.00;;;23.14;76.24
22649;BME280;11491;41.942;24.220;2022-09-03T08:27:26;90032.75;;;23.34;74.40
22649;BME280;11491;41.942;24.220;2022-09-03T08:29:54;90031.88;;;23.60;74.98
22649;BME280;11491;41.942;24.220;2022-09-03T08:32:21;90026.06;;;23.78;72.82
22649;BME280;11491;41.942;24.220;2022-09-03T08:34:49;90018.25;;;23.97;70.13
22649;BME280;11491;41.942;24.220;2022-09-03T08:37:16;90020.50;;;24.02;68.97
22649;BME280;11491;41.942;24.220;2022-09-03T08:39:44;90022.81;;;24.03;70.18
22649;BME280;11491;41.942;24.220;2022-09-03T08:42:35;90018.47;;;24.06;67.32
22649;BME280;11491;41.942;24.220;2022-09-03T08:45:05;90012.50;;;24.11;66.48
22649;BME280;11491;41.942;24.220;2022-09-03T08:47:36;90011.50;;;24.21;66.08
22649;BME280;11491;41.942;24.220;2022-09-03T08:50:11;90011.50;;;24.21;65.38
22649;BME280;11491;41.942;24.220;2022-09-03T08:52:45;90010.91;;;24.30;64.40
22649;BME280;11491;41.942;24.220;2022-09-03T08:55:20;90009.63;;;24.35;64.43
22649;BME280;11491;41.942;24.220;2022-09-03T08:57:49;90013.09;;;24.55;66.36
22649;BME280;11491;41.942;24.220;2022-09-03T09:00:18;90011.88;;;24.89;65.70
22649;BME280;11491;41.942;24.220;2022-09-03T09:02:55;90008.28;;;25.25;63.11
22649;BME280;11491;41.942;24.220;2022-09-03T09:05:40;90017.78;;;25.49;61.13
22649;BME280;11491;41.942;24.220;2022-09-03T09:08:16;90023.31;;;25.75;58.94
22649;BME280;11491;41.942;24.220;2022-09-03T09:10:47;90018.13;;;25.93;58.63
22649;BME280;11491;41.942;24.220;2022-09-03T09:13:21;90017.16;;;25.87;57.37
22649;BME280;11491;41.942;24.220;2022-09-03T09:15:57;90015.28;;;25.55;59.72
22649;BME280;11491;41.942;24.220;2022-09-03T09:18:38;90018.31;;;25.44;58.29
22649;BME280;11491;41.942;24.220;2022-09-03T09:21:15;90021.75;;;25.32;60.16
22649;BME280;11491;41.942;24.220;2022-09-03T09:23:45;90027.34;;;24.96;61.92
22649;BME280;11491;41.942;24.220;2022-09-03T09:26:15;90028.44;;;24.98;62.08
22649;BME280;11491;41.942;24.220;2022-09-03T09:28:45;90028.78;;;25.17;62.13
22649;BME280;11491;41.942;24.220;2022-09-03T09:31:14;90016.72;;;25.60;64.32
22649;BME280;11491;41.942;24.220;2022-09-03T09:33:43;90025.16;;;25.94;61.34
22649;BME280;11491;41.942;24.220;2022-09-03T09:36:13;90022.22;;;26.14;60.15
22649;BME280;11491;41.942;24.220;2022-09-03T09:38:42;90034.81;;;26.12;60.57
22649;BME280;11491;41.942;24.220;2022-09-03T09:41:11;90028.59;;;26.24;58.91
22649;BME280;11491;41.942;24.220;2022-09-03T09:43:38;90032.78;;;26.29;58.33
22649;BME280;11491;41.942;24.220;2022-09-03T09:46:09;90025.41;;;26.13;61.52
22649;BME280;11491;41.942;24.220;2022-09-03T09:48:39;90027.47;;;25.67;60.92
22649;BME280;11491;41.942;24.220;2022-09-03T09:51:17;90019.03;;;25.32;62.81
22649;BME280;11491;41.942;24.220;2022-09-03T09:53:44;90018.84;;;25.39;64.94
22649;BME280;11491;41.942;24.220;2022-09-03T09:56:20;90020.84;;;25.51;63.94
22649;BME280;11491;41.942;24.220;2022-09-03T09:58:46;90020.63;;;25.58;62.04
22649;BME280;11491;41.942;24.220;2022-09-03T10:01:18;90019.59;;;25.40;63.20
22649;BME280;11491;41.942;24.220;2022-09-03T10:03:51;90019.75;;;25.20;63.07
22649;BME280;11491;41.942;24.220;2022-09-03T10:06:22;90027.41;;;25.08;64.89
22649;BME280;11491;41.942;24.220;2022-09-03T10:09:08;90028.59;;;25.24;62.45
22649;BME280;11491;41.942;24.220;2022-09-03T10:11:37;90027.22;;;25.15;64.03
22649;BME280;11491;41.942;24.220;2022-09-03T10:14:10;90015.13;;;25.00;64.37
22649;BME280;11491;41.942;24.220;2022-09-03T10:16:41;90028.88;;;24.97;65.65
22649;BME280;11491;41.942;24.220;2022-09-03T10:19:16;90021.69;;;24.86;64.68
22649;BME280;11491;41.942;24.220;2022-09-03T10:21:50;90025.38;;;24.96;64.48
22649;BME280;11491;41.942;24.220;2022-09-03T10:24:40;90020.06;;;24.89;65.13
22649;BME280;11491;41.942;24.220;2022-09-03T10:27:15;90011.19;;;25.01;63.85
22649;BME280;11491;41.942;24.220;2022-09-03T10:29:45;90017.69;;;25.07;63.75
22649;BME280;11491;41.942;24.220;2022-09-03T10:32:31;90015.66;;;25.41;67.85
22649;BME280;11491;41.942;24.220;2022-09-03T10:35:04;90019.38;;;25.76;63.24
22649;BME280;11491;41.942;24.220;2022-09-03T10:37:41;90010.31;;;25.79;61.44
22649;BME280;11491;41.942;24.220;2022-09-03T10:40:17;90020.94;;;25.77;61.25
22649;BME280;11491;41.942;24.220;2022-09-03T10:42:48;90020.66;;;25.88;63.75
22649;BME280;11491;41.942;24.220;2022-09-03T10:45:30;90020.72;;;25.26;61.86
22649;BME280;11491;41.942;24.220;2022-09-03T10:51:03;90029.47;;;24.88;63.62
22649;BME280;11491;41.942;24.220;2022-09-03T10:53:46;90034.94;;;24.88;65.47
22649;BME280;11491;41.942;24.220;2022-09-03T10:56:19;90031.34;;;25.07;62.74
22649;BME280;11491;41.942;24.220;2022-09-03T10:59:07;90040.91;;;24.99;63.20
22649;BME280;11491;41.942;24.220;2022-09-03T11:01:42;90037.16;;;24.93;61.73
22649;BME280;11491;41.942;24.220;2022-09-03T11:04:26;90044.53;;;24.80;62.04
22649;BME280;11491;41.942;24.220;2022-09-03T11:06:59;90029.06;;;24.20;60.98
22649;BME280;11491;41.942;24.220;2022-09-03T11:09:36;90032.84;;;23.70;64.44
22649;BME280;11491;41.942;24.220;2022-09-03T11:12:08;90035.13;;;23.52;68.93
22649;BME280;11491;41.942;24.220;2022-09-03T11:14:40;90026.81;;;23.99;67.21
22649;BME280;11491;41.942;24.220;2022-09-03T11:17:10;90036.78;;;24.25;64.77
22649;BME280;11491;41.942;24.220;2022-09-03T11:19:44;90034.78;;;23.90;65.18
22649;BME280;11491;41.942;24.220;2022-09-03T11:22:14;90041.94;;;23.83;66.24
22649;BME280;11491;41.942;24.220;2022-09-03T11:24:48;90037.09;;;23.71;66.47
22649;BME280;11491;41.942;24.220;2022-09-03T11:27:25;90041.34;;;23.72;65.78
22649;BME280;11491;41.942;24.220;2022-09-03T11:30:01;90033.59;;;23.71;65.85
22649;BME280;11491;41.942;24.220;2022-09-03T11:32:42;90029.19;;;23.57;66.98
22649;BME280;11491;41.942;24.220;2022-09-03T11:35:14;90029.13;;;23.60;67.02
22649;BME280;11491;41.942;24.220;2022-09-03T11:37:51;90036.25;;;23.34;67.66
22649;BME280;11491;41.942;24.220;2022-09-03T11:40:28;90059.81;;;23.44;65.75
22649;BME280;11491;41.942;24.220;2022-09-03T11:43:05;90067.31;;;23.40;66.98
22649;BME280;11491;41.942;24.220;2022-09-03T11:45:36;90068.59;;;23.56;67.63
22649;BME280;11491;41.942;24.220;2022-09-03T11:48:18;90060.97;;;23.87;63.76
22649;BME280;11491;41.942;24.220;2022-09-03T11:50:53;90046.94;;;23.65;63.87
22649;BME280;11491;41.942;24.220;2022-09-03T11:53:24;90066.00;;;23.89;62.94
22649;BME280;11491;41.942;24.220;2022-09-03T11:55:55;90043.75;;;23.70;62.58
22649;BME280;11491;41.942;24.220;2022-09-03T11:58:27;90071.84;;;23.67;63.33
22649;BME280;11491;41.942;24.220;2022-09-03T12:00:55;90073.25;;;23.35;63.76
22649;BME280;11491;41.942;24.220;2022-09-03T12:03:28;90073.69;;;23.54;64.41
22649;BME280;11491;41.942;24.220;2022-09-03T12:06:11;90062.09;;;23.90;65.05
22649;BME280;11491;41.942;24.220;2022-09-03T12:08:54;90057.59;;;24.36;60.74
22649;BME280;11491;41.942;24.220;2022-09-03T12:11:36;90074.56;;;24.63;61.68
22649;BME280;11491;41.942;24.220;2022-09-03T12:14:09;90060.91;;;24.96;60.73
22649;BME280;11491;41.942;24.220;2022-09-03T12:16:54;90063.28;;;25.43;57.49
22649;BME280;11491;41.942;24.220;2022-09-03T12:19:27;90040.31;;;25.53;58.09
22649;BME280;11491;41.942;24.220;2022-09-03T12:21:57;90065.94;;;26.18;56.69
22649;BME280;11491;41.942;24.220;2022-09-03T12:24:27;90066.31;;;25.62;56.24
22649;BME280;11491;41.942;24.220;2022-09-03T12:26:58;90064.34;;;25.00;55.75
22649;BME280;11491;41.942;24.220;2022-09-03T12:29:27;90055.13;;;24.78;57.09
22649;BME280;11491;41.942;24.220;2022-09-03T12:31:55;90070.03;;;24.20;58.32
22649;BME280;11491;41.942;24.220;2022-09-03T12:34:22;90069.03;;;23.74;59.17
22649;BME280;11491;41.942;24.220;2022-09-03T12:36:51;90059.06;;;23.44;62.94
22649;BME280;11491;41.942;24.220;2022-09-03T12:39:20;90055.22;;;23.41;63.98
22649;BME280;11491;41.942;24.220;2022-09-03T12:42:00;90060.50;;;24.28;64.77
22649;BME280;11491;41.942;24.220;2022-09-03T12:44:29;90055.84;;;24.62;58.54
22649;BME280;11491;41.942;24.220;2022-09-03T12:47:01;90061.94;;;24.53;59.09
22649;BME280;11491;41.942;24.220;2022-09-03T12:49:33;90064.31;;;24.51;60.08
22649;BME280;11491;41.942;24.220;2022-09-03T12:52:06;90070.28;;;24.46;60.70
22649;BME280;11491;41.942;24.220;2022-09-03T12:54:37;90068.13;;;24.37;60.65
22649;BME280;11491;41.942;24.220;2022-09-03T12:57:07;90066.81;;;24.25;60.50
22649;BME280;11491;41.942;24.220;2022-09-03T12:59:35;90066.41;;;24.07;60.28
22649;BME280;11491;41.942;24.220;2022-09-03T13:02:12;90067.13;;;23.71;60.55
22649;BME280;11491;41.942;24.220;2022-09-03T13:04:42;90052.34;;;23.49;62.67
22649;BME280;11491;41.942;24.220;2022-09-03T13:07:13;90055.88;;;23.89;65.18
22649;BME280;11491;41.942;24.220;2022-09-03T13:09:41;90056.81;;;24.55;60.10
22649;BME280;11491;41.942;24.220;2022-09-03T13:12:21;90042.69;;;25.06;57.50
22649;BME280;11491;41.942;24.220;2022-09-03T13:14:49;90042.94;;;25.44;56.96